Weather at Bujumbura Melchior Ndadaye International Airport

Public forecast

Using degrees Celsius for public forecast. Weather courtesy of forecast.io.

Current aviation weather report (METAR) for Bujumbura Melchior Ndadaye International Airport

Retrieved 2021/10/22 02:00 UTC (22 minutes ago):

HBBA 220200Z 00000KT 9999 FEW030 20/19 Q1012 NOSIG

Aviation forecast (TAF) for Bujumbura Melchior Ndadaye International Airport

Forecast is more than 12 hours old.

Retrieved 2021/10/21 12:09 UTC (14 hours ago):

TAF TAF HBBA 211100Z 2112/2218 18010G25KT 9999 FEW030 BKN120 PROB40 TEMPO2113/2116 7000 FEW030CB SHRA OR TSRA BECMG2202/2204 36004KT 9999 SCT100 BECMG2207/2209 18010G20KT 9999 FEW030 BKN120